sensor_id;sensor_type;location;lat;lon;timestamp;P1;durP1;ratioP1;P2;durP2;ratioP2
84101;SDS011;74198;51.618;8.334;2024-03-08T00:00:32;19.27;;;10.40;;
84101;SDS011;74198;51.618;8.334;2024-03-08T00:02:58;31.27;;;12.90;;
84101;SDS011;74198;51.618;8.334;2024-03-08T00:05:26;20.63;;;11.30;;
84101;SDS011;74198;51.618;8.334;2024-03-08T00:07:52;19.92;;;10.25;;
84101;SDS011;74198;51.618;8.334;2024-03-08T00:10:18;23.65;;;11.18;;
84101;SDS011;74198;51.618;8.334;2024-03-08T00:12:45;24.55;;;11.50;;
84101;SDS011;74198;51.618;8.334;2024-03-08T00:15:12;24.20;;;11.23;;
84101;SDS011;74198;51.618;8.334;2024-03-08T00:17:39;26.60;;;11.85;;
84101;SDS011;74198;51.618;8.334;2024-03-08T00:20:05;23.73;;;10.73;;
84101;SDS011;74198;51.618;8.334;2024-03-08T00:22:37;19.55;;;10.68;;
84101;SDS011;74198;51.618;8.334;2024-03-08T00:25:06;24.85;;;10.85;;
84101;SDS011;74198;51.618;8.334;2024-03-08T00:27:36;21.48;;;10.40;;
84101;SDS011;74198;51.618;8.334;2024-03-08T00:30:03;25.35;;;11.05;;
84101;SDS011;74198;51.618;8.334;2024-03-08T00:32:30;24.67;;;10.82;;
84101;SDS011;74198;51.618;8.334;2024-03-08T00:34:56;24.45;;;11.43;;
84101;SDS011;74198;51.618;8.334;2024-03-08T00:37:23;25.08;;;11.50;;
84101;SDS011;74198;51.618;8.334;2024-03-08T00:39:50;24.35;;;10.30;;
84101;SDS011;74198;51.618;8.334;2024-03-08T00:42:16;22.25;;;11.50;;
84101;SDS011;74198;51.618;8.334;2024-03-08T00:44:42;21.00;;;10.57;;
84101;SDS011;74198;51.618;8.334;2024-03-08T00:47:08;23.10;;;10.85;;
84101;SDS011;74198;51.618;8.334;2024-03-08T00:49:34;24.15;;;10.82;;
84101;SDS011;74198;51.618;8.334;2024-03-08T00:52:01;24.80;;;11.32;;
84101;SDS011;74198;51.618;8.334;2024-03-08T00:54:28;27.73;;;11.07;;
84101;SDS011;74198;51.618;8.334;2024-03-08T00:56:55;23.20;;;11.35;;
84101;SDS011;74198;51.618;8.334;2024-03-08T00:59:21;23.33;;;11.98;;
84101;SDS011;74198;51.618;8.334;2024-03-08T01:01:47;23.58;;;12.68;;
84101;SDS011;74198;51.618;8.334;2024-03-08T01:04:13;25.52;;;10.93;;
84101;SDS011;74198;51.618;8.334;2024-03-08T01:06:39;23.67;;;10.50;;
84101;SDS011;74198;51.618;8.334;2024-03-08T01:09:05;27.40;;;12.57;;
84101;SDS011;74198;51.618;8.334;2024-03-08T01:11:34;24.23;;;9.98;;
84101;SDS011;74198;51.618;8.334;2024-03-08T01:14:00;21.88;;;11.63;;
84101;SDS011;74198;51.618;8.334;2024-03-08T01:16:26;27.42;;;12.07;;
84101;SDS011;74198;51.618;8.334;2024-03-08T01:18:52;23.60;;;11.93;;
84101;SDS011;74198;51.618;8.334;2024-03-08T01:21:18;25.02;;;10.57;;
84101;SDS011;74198;51.618;8.334;2024-03-08T01:23:44;21.55;;;11.52;;
84101;SDS011;74198;51.618;8.334;2024-03-08T01:26:10;29.75;;;13.85;;
84101;SDS011;74198;51.618;8.334;2024-03-08T01:28:36;28.13;;;11.48;;
84101;SDS011;74198;51.618;8.334;2024-03-08T01:31:02;21.48;;;9.93;;
84101;SDS011;74198;51.618;8.334;2024-03-08T01:33:29;22.98;;;10.63;;
84101;SDS011;74198;51.618;8.334;2024-03-08T01:35:56;23.60;;;11.50;;
84101;SDS011;74198;51.618;8.334;2024-03-08T01:38:22;26.70;;;10.95;;
84101;SDS011;74198;51.618;8.334;2024-03-08T01:40:48;20.40;;;10.63;;
84101;SDS011;74198;51.618;8.334;2024-03-08T01:43:21;24.05;;;11.32;;
84101;SDS011;74198;51.618;8.334;2024-03-08T01:45:48;25.92;;;12.40;;
84101;SDS011;74198;51.618;8.334;2024-03-08T01:48:14;20.98;;;10.88;;
84101;SDS011;74198;51.618;8.334;2024-03-08T01:50:40;24.00;;;10.70;;
84101;SDS011;74198;51.618;8.334;2024-03-08T01:53:07;23.60;;;11.20;;
84101;SDS011;74198;51.618;8.334;2024-03-08T01:55:35;20.42;;;10.75;;
84101;SDS011;74198;51.618;8.334;2024-03-08T01:58:01;21.88;;;10.10;;
84101;SDS011;74198;51.618;8.334;2024-03-08T02:00:27;25.65;;;10.88;;
84101;SDS011;74198;51.618;8.334;2024-03-08T02:02:55;25.55;;;11.38;;
84101;SDS011;74198;51.618;8.334;2024-03-08T02:05:21;24.35;;;11.38;;
84101;SDS011;74198;51.618;8.334;2024-03-08T02:07:48;26.00;;;11.82;;
84101;SDS011;74198;51.618;8.334;2024-03-08T02:10:14;23.70;;;11.57;;
84101;SDS011;74198;51.618;8.334;2024-03-08T02:12:40;22.67;;;9.63;;
84101;SDS011;74198;51.618;8.334;2024-03-08T02:15:06;24.98;;;11.45;;
84101;SDS011;74198;51.618;8.334;2024-03-08T02:17:32;24.52;;;10.50;;
84101;SDS011;74198;51.618;8.334;2024-03-08T02:19:59;24.63;;;11.02;;
84101;SDS011;74198;51.618;8.334;2024-03-08T02:22:30;23.70;;;10.73;;
84101;SDS011;74198;51.618;8.334;2024-03-08T02:24:59;23.05;;;10.45;;
84101;SDS011;74198;51.618;8.334;2024-03-08T02:27:26;25.10;;;10.80;;
84101;SDS011;74198;51.618;8.334;2024-03-08T02:29:56;22.92;;;11.25;;
84101;SDS011;74198;51.618;8.334;2024-03-08T02:32:22;20.77;;;9.80;;
84101;SDS011;74198;51.618;8.334;2024-03-08T02:34:49;21.35;;;10.27;;
84101;SDS011;74198;51.618;8.334;2024-03-08T02:37:18;27.00;;;11.85;;
84101;SDS011;74198;51.618;8.334;2024-03-08T02:39:44;20.45;;;10.02;;
84101;SDS011;74198;51.618;8.334;2024-03-08T02:42:10;21.42;;;10.80;;
84101;SDS011;74198;51.618;8.334;2024-03-08T02:44:36;21.15;;;10.23;;
84101;SDS011;74198;51.618;8.334;2024-03-08T02:47:02;22.38;;;11.27;;
84101;SDS011;74198;51.618;8.334;2024-03-08T02:49:28;21.88;;;10.63;;
84101;SDS011;74198;51.618;8.334;2024-03-08T02:51:54;24.60;;;11.07;;
84101;SDS011;74198;51.618;8.334;2024-03-08T02:54:22;21.05;;;10.20;;
84101;SDS011;74198;51.618;8.334;2024-03-08T02:56:49;24.20;;;10.45;;
84101;SDS011;74198;51.618;8.334;2024-03-08T02:59:17;28.08;;;12.43;;
84101;SDS011;74198;51.618;8.334;2024-03-08T03:01:43;23.95;;;10.63;;
84101;SDS011;74198;51.618;8.334;2024-03-08T03:04:09;24.25;;;10.07;;
84101;SDS011;74198;51.618;8.334;2024-03-08T03:06:36;25.33;;;12.00;;
84101;SDS011;74198;51.618;8.334;2024-03-08T03:09:02;23.45;;;11.25;;
84101;SDS011;74198;51.618;8.334;2024-03-08T03:11:31;26.63;;;11.48;;
84101;SDS011;74198;51.618;8.334;2024-03-08T03:13:57;22.00;;;10.20;;
84101;SDS011;74198;51.618;8.334;2024-03-08T03:16:23;26.27;;;11.23;;
84101;SDS011;74198;51.618;8.334;2024-03-08T03:18:49;24.50;;;11.32;;
84101;SDS011;74198;51.618;8.334;2024-03-08T03:21:15;26.55;;;10.27;;
84101;SDS011;74198;51.618;8.334;2024-03-08T03:23:42;29.60;;;11.98;;
84101;SDS011;74198;51.618;8.334;2024-03-08T03:26:08;24.55;;;10.20;;
84101;SDS011;74198;51.618;8.334;2024-03-08T03:28:37;27.90;;;10.60;;
84101;SDS011;74198;51.618;8.334;2024-03-08T03:31:05;26.55;;;11.55;;
84101;SDS011;74198;51.618;8.334;2024-03-08T03:33:31;27.88;;;12.95;;
84101;SDS011;74198;51.618;8.334;2024-03-08T03:35:59;27.58;;;10.60;;
84101;SDS011;74198;51.618;8.334;2024-03-08T03:38:26;25.83;;;10.80;;
84101;SDS011;74198;51.618;8.334;2024-03-08T03:40:53;26.17;;;11.70;;
84101;SDS011;74198;51.618;8.334;2024-03-08T03:43:22;26.98;;;11.73;;
84101;SDS011;74198;51.618;8.334;2024-03-08T03:45:48;22.98;;;10.25;;
84101;SDS011;74198;51.618;8.334;2024-03-08T03:48:14;24.48;;;11.32;;
84101;SDS011;74198;51.618;8.334;2024-03-08T03:50:40;23.80;;;11.63;;
84101;SDS011;74198;51.618;8.334;2024-03-08T03:53:06;25.52;;;11.45;;
84101;SDS011;74198;51.618;8.334;2024-03-08T03:55:32;27.48;;;13.10;;
84101;SDS011;74198;51.618;8.334;2024-03-08T03:57:58;25.15;;;11.93;;
84101;SDS011;74198;51.618;8.334;2024-03-08T04:00:26;26.70;;;12.32;;
84101;SDS011;74198;51.618;8.334;2024-03-08T04:02:52;23.30;;;10.23;;
84101;SDS011;74198;51.618;8.334;2024-03-08T04:05:18;28.77;;;12.80;;
84101;SDS011;74198;51.618;8.334;2024-03-08T04:07:44;26.30;;;12.93;;
84101;SDS011;74198;51.618;8.334;2024-03-08T04:10:11;28.05;;;12.98;;
84101;SDS011;74198;51.618;8.334;2024-03-08T04:12:37;23.02;;;11.20;;
84101;SDS011;74198;51.618;8.334;2024-03-08T04:15:04;24.50;;;10.60;;
84101;SDS011;74198;51.618;8.334;2024-03-08T04:17:33;27.85;;;12.13;;
84101;SDS011;74198;51.618;8.334;2024-03-08T04:20:03;25.48;;;13.00;;
84101;SDS011;74198;51.618;8.334;2024-03-08T04:25:00;28.20;;;10.60;;
84101;SDS011;74198;51.618;8.334;2024-03-08T04:27:27;27.48;;;11.15;;
84101;SDS011;74198;51.618;8.334;2024-03-08T04:29:53;28.55;;;13.25;;
84101;SDS011;74198;51.618;8.334;2024-03-08T04:32:19;25.73;;;11.80;;
84101;SDS011;74198;51.618;8.334;2024-03-08T04:34:45;25.00;;;12.02;;
84101;SDS011;74198;51.618;8.334;2024-03-08T04:37:10;26.10;;;12.40;;
84101;SDS011;74198;51.618;8.334;2024-03-08T04:39:39;29.67;;;13.52;;
84101;SDS011;74198;51.618;8.334;2024-03-08T04:42:05;25.20;;;11.05;;
84101;SDS011;74198;51.618;8.334;2024-03-08T04:44:38;22.75;;;11.90;;
84101;SDS011;74198;51.618;8.334;2024-03-08T04:47:05;29.05;;;12.68;;
84101;SDS011;74198;51.618;8.334;2024-03-08T04:49:31;28.67;;;12.60;;
84101;SDS011;74198;51.618;8.334;2024-03-08T04:51:59;33.13;;;12.98;;
84101;SDS011;74198;51.618;8.334;2024-03-08T04:54:27;35.28;;;13.20;;
84101;SDS011;74198;51.618;8.334;2024-03-08T04:56:53;32.00;;;12.00;;
84101;SDS011;74198;51.618;8.334;2024-03-08T04:59:19;31.02;;;13.05;;
84101;SDS011;74198;51.618;8.334;2024-03-08T05:01:45;26.45;;;11.75;;
84101;SDS011;74198;51.618;8.334;2024-03-08T05:04:12;29.20;;;12.85;;
84101;SDS011;74198;51.618;8.334;2024-03-08T05:06:38;31.17;;;12.35;;
84101;SDS011;74198;51.618;8.334;2024-03-08T05:09:04;31.52;;;11.98;;
84101;SDS011;74198;51.618;8.334;2024-03-08T05:11:38;26.42;;;11.70;;
84101;SDS011;74198;51.618;8.334;2024-03-08T05:14:04;25.10;;;11.07;;
84101;SDS011;74198;51.618;8.334;2024-03-08T05:16:30;29.35;;;12.82;;
84101;SDS011;74198;51.618;8.334;2024-03-08T05:18:56;29.42;;;13.02;;
84101;SDS011;74198;51.618;8.334;2024-03-08T05:21:22;24.65;;;12.10;;
84101;SDS011;74198;51.618;8.334;2024-03-08T05:23:48;32.55;;;13.15;;
84101;SDS011;74198;51.618;8.334;2024-03-08T05:26:15;30.45;;;12.10;;
84101;SDS011;74198;51.618;8.334;2024-03-08T05:28:41;36.85;;;13.63;;
84101;SDS011;74198;51.618;8.334;2024-03-08T05:31:07;27.70;;;12.07;;
84101;SDS011;74198;51.618;8.334;2024-03-08T05:33:34;27.63;;;12.90;;
84101;SDS011;74198;51.618;8.334;2024-03-08T05:36:00;27.55;;;11.57;;
84101;SDS011;74198;51.618;8.334;2024-03-08T05:38:27;33.03;;;13.55;;
84101;SDS011;74198;51.618;8.334;2024-03-08T05:40:53;32.83;;;13.82;;
84101;SDS011;74198;51.618;8.334;2024-03-08T05:43:19;28.80;;;11.73;;
84101;SDS011;74198;51.618;8.334;2024-03-08T05:45:46;23.40;;;11.88;;
84101;SDS011;74198;51.618;8.334;2024-03-08T05:48:13;29.05;;;13.07;;
84101;SDS011;74198;51.618;8.334;2024-03-08T05:50:39;31.63;;;15.10;;
84101;SDS011;74198;51.618;8.334;2024-03-08T05:53:05;31.83;;;13.65;;
84101;SDS011;74198;51.618;8.334;2024-03-08T05:55:34;23.65;;;11.68;;
84101;SDS011;74198;51.618;8.334;2024-03-08T05:58:00;26.02;;;9.93;;
84101;SDS011;74198;51.618;8.334;2024-03-08T06:00:26;30.20;;;13.45;;
84101;SDS011;74198;51.618;8.334;2024-03-08T06:02:52;26.42;;;11.82;;
84101;SDS011;74198;51.618;8.334;2024-03-08T06:05:18;27.27;;;10.57;;
84101;SDS011;74198;51.618;8.334;2024-03-08T06:07:44;33.47;;;14.88;;
84101;SDS011;74198;51.618;8.334;2024-03-08T06:10:10;30.17;;;12.90;;
84101;SDS011;74198;51.618;8.334;2024-03-08T06:12:37;28.63;;;14.63;;
84101;SDS011;74198;51.618;8.334;2024-03-08T06:15:07;31.15;;;11.43;;
84101;SDS011;74198;51.618;8.334;2024-03-08T06:17:39;28.25;;;12.65;;
84101;SDS011;74198;51.618;8.334;2024-03-08T06:20:06;28.90;;;12.77;;
84101;SDS011;74198;51.618;8.334;2024-03-08T06:22:36;26.75;;;12.32;;
84101;SDS011;74198;51.618;8.334;2024-03-08T06:25:02;25.63;;;11.93;;
84101;SDS011;74198;51.618;8.334;2024-03-08T06:27:28;28.27;;;12.77;;
84101;SDS011;74198;51.618;8.334;2024-03-08T06:29:54;27.50;;;13.15;;
84101;SDS011;74198;51.618;8.334;2024-03-08T06:32:20;32.28;;;13.07;;
84101;SDS011;74198;51.618;8.334;2024-03-08T06:34:46;32.65;;;13.75;;
84101;SDS011;74198;51.618;8.334;2024-03-08T06:37:12;26.98;;;12.68;;
84101;SDS011;74198;51.618;8.334;2024-03-08T06:39:39;25.50;;;13.13;;
84101;SDS011;74198;51.618;8.334;2024-03-08T06:42:05;28.52;;;12.13;;
84101;SDS011;74198;51.618;8.334;2024-03-08T06:44:32;34.88;;;13.25;;
84101;SDS011;74198;51.618;8.334;2024-03-08T06:46:59;29.63;;;11.80;;
84101;SDS011;74198;51.618;8.334;2024-03-08T06:49:25;25.50;;;12.93;;
84101;SDS011;74198;51.618;8.334;2024-03-08T06:51:51;27.30;;;13.60;;
84101;SDS011;74198;51.618;8.334;2024-03-08T06:54:18;31.10;;;13.90;;
84101;SDS011;74198;51.618;8.334;2024-03-08T06:56:44;23.30;;;11.95;;
84101;SDS011;74198;51.618;8.334;2024-03-08T06:59:10;27.55;;;12.57;;
84101;SDS011;74198;51.618;8.334;2024-03-08T07:01:36;27.48;;;12.25;;
84101;SDS011;74198;51.618;8.334;2024-03-08T07:04:02;31.52;;;12.80;;
84101;SDS011;74198;51.618;8.334;2024-03-08T07:06:30;29.15;;;12.32;;
84101;SDS011;74198;51.618;8.334;2024-03-08T07:08:58;25.80;;;12.27;;
84101;SDS011;74198;51.618;8.334;2024-03-08T07:11:24;27.48;;;12.85;;
84101;SDS011;74198;51.618;8.334;2024-03-08T07:13:50;24.55;;;12.20;;
84101;SDS011;74198;51.618;8.334;2024-03-08T07:16:16;26.52;;;12.75;;
84101;SDS011;74198;51.618;8.334;2024-03-08T07:18:42;27.60;;;13.93;;
84101;SDS011;74198;51.618;8.334;2024-03-08T07:21:08;27.90;;;12.13;;
84101;SDS011;74198;51.618;8.334;2024-03-08T07:23:35;26.60;;;12.32;;
84101;SDS011;74198;51.618;8.334;2024-03-08T07:26:20;26.77;;;12.23;;
84101;SDS011;74198;51.618;8.334;2024-03-08T07:28:46;27.17;;;12.27;;
84101;SDS011;74198;51.618;8.334;2024-03-08T07:31:12;27.90;;;12.05;;
84101;SDS011;74198;51.618;8.334;2024-03-08T07:33:50;30.40;;;10.80;;
84101;SDS011;74198;51.618;8.334;2024-03-08T07:36:18;25.67;;;12.18;;
84101;SDS011;74198;51.618;8.334;2024-03-08T07:38:44;23.23;;;11.93;;
84101;SDS011;74198;51.618;8.334;2024-03-08T07:41:13;26.02;;;11.23;;
84101;SDS011;74198;51.618;8.334;2024-03-08T07:43:39;26.70;;;14.00;;
84101;SDS011;74198;51.618;8.334;2024-03-08T07:46:05;23.67;;;13.52;;
84101;SDS011;74198;51.618;8.334;2024-03-08T07:48:31;23.90;;;12.40;;
84101;SDS011;74198;51.618;8.334;2024-03-08T07:50:57;27.42;;;13.60;;
84101;SDS011;74198;51.618;8.334;2024-03-08T07:53:23;26.88;;;13.93;;
84101;SDS011;74198;51.618;8.334;2024-03-08T07:55:49;25.38;;;11.50;;
84101;SDS011;74198;51.618;8.334;2024-03-08T07:58:15;23.48;;;12.50;;
84101;SDS011;74198;51.618;8.334;2024-03-08T08:00:42;27.98;;;13.88;;
84101;SDS011;74198;51.618;8.334;2024-03-08T08:03:08;29.05;;;14.38;;
84101;SDS011;74198;51.618;8.334;2024-03-08T08:05:34;25.73;;;13.80;;
84101;SDS011;74198;51.618;8.334;2024-03-08T08:08:02;26.80;;;14.10;;
84101;SDS011;74198;51.618;8.334;2024-03-08T08:10:31;27.25;;;13.57;;
84101;SDS011;74198;51.618;8.334;2024-03-08T08:12:57;27.27;;;14.55;;
84101;SDS011;74198;51.618;8.334;2024-03-08T08:15:23;26.48;;;13.57;;
84101;SDS011;74198;51.618;8.334;2024-03-08T08:17:49;24.25;;;13.75;;
84101;SDS011;74198;51.618;8.334;2024-03-08T08:20:17;25.85;;;14.25;;
84101;SDS011;74198;51.618;8.334;2024-03-08T08:22:43;25.10;;;13.13;;
84101;SDS011;74198;51.618;8.334;2024-03-08T08:25:09;25.88;;;13.43;;
84101;SDS011;74198;51.618;8.334;2024-03-08T08:27:40;24.58;;;12.98;;
84101;SDS011;74198;51.618;8.334;2024-03-08T08:30:09;20.27;;;10.38;;
84101;SDS011;74198;51.618;8.334;2024-03-08T08:32:36;27.60;;;13.88;;
84101;SDS011;74198;51.618;8.334;2024-03-08T08:35:05;25.02;;;12.65;;
84101;SDS011;74198;51.618;8.334;2024-03-08T08:37:32;26.45;;;15.10;;
84101;SDS011;74198;51.618;8.334;2024-03-08T08:40:02;26.38;;;13.50;;
84101;SDS011;74198;51.618;8.334;2024-03-08T08:42:33;16.30;;;8.10;;
84101;SDS011;74198;51.618;8.334;2024-03-08T08:44:59;25.50;;;13.35;;
84101;SDS011;74198;51.618;8.334;2024-03-08T08:47:29;24.10;;;13.30;;
84101;SDS011;74198;51.618;8.334;2024-03-08T08:49:55;19.27;;;10.05;;
84101;SDS011;74198;51.618;8.334;2024-03-08T08:52:21;21.35;;;12.65;;
84101;SDS011;74198;51.618;8.334;2024-03-08T08:54:48;22.85;;;11.80;;
84101;SDS011;74198;51.618;8.334;2024-03-08T08:57:14;22.92;;;11.82;;
84101;SDS011;74198;51.618;8.334;2024-03-08T08:59:41;21.73;;;12.63;;
84101;SDS011;74198;51.618;8.334;2024-03-08T09:02:07;22.23;;;12.23;;
84101;SDS011;74198;51.618;8.334;2024-03-08T09:04:33;21.05;;;10.27;;
84101;SDS011;74198;51.618;8.334;2024-03-08T09:07:00;25.00;;;13.43;;
84101;SDS011;74198;51.618;8.334;2024-03-08T09:09:26;20.77;;;11.70;;
84101;SDS011;74198;51.618;8.334;2024-03-08T09:11:53;22.77;;;13.20;;
84101;SDS011;74198;51.618;8.334;2024-03-08T09:14:19;19.80;;;11.88;;
84101;SDS011;74198;51.618;8.334;2024-03-08T09:16:46;23.88;;;12.82;;
84101;SDS011;74198;51.618;8.334;2024-03-08T09:19:12;20.00;;;10.60;;
84101;SDS011;74198;51.618;8.334;2024-03-08T09:21:38;21.75;;;11.65;;
84101;SDS011;74198;51.618;8.334;2024-03-08T09:24:05;22.10;;;12.70;;
84101;SDS011;74198;51.618;8.334;2024-03-08T09:26:32;24.38;;;12.77;;
84101;SDS011;74198;51.618;8.334;2024-03-08T09:28:58;23.30;;;12.38;;
84101;SDS011;74198;51.618;8.334;2024-03-08T09:31:24;22.30;;;11.07;;
84101;SDS011;74198;51.618;8.334;2024-03-08T09:33:51;21.92;;;13.05;;
84101;SDS011;74198;51.618;8.334;2024-03-08T09:36:17;25.88;;;13.38;;
84101;SDS011;74198;51.618;8.334;2024-03-08T09:38:43;20.70;;;12.27;;
84101;SDS011;74198;51.618;8.334;2024-03-08T09:41:09;21.48;;;11.38;;
84101;SDS011;74198;51.618;8.334;2024-03-08T09:43:35;25.05;;;13.52;;
84101;SDS011;74198;51.618;8.334;2024-03-08T09:46:03;21.02;;;11.50;;
84101;SDS011;74198;51.618;8.334;2024-03-08T09:48:31;21.05;;;11.15;;
84101;SDS011;74198;51.618;8.334;2024-03-08T09:50:57;20.55;;;10.70;;
84101;SDS011;74198;51.618;8.334;2024-03-08T09:53:23;19.63;;;11.27;;
84101;SDS011;74198;51.618;8.334;2024-03-08T09:55:49;20.80;;;11.18;;
84101;SDS011;74198;51.618;8.334;2024-03-08T09:58:15;15.50;;;9.80;;
84101;SDS011;74198;51.618;8.334;2024-03-08T10:00:41;19.27;;;9.65;;
84101;SDS011;74198;51.618;8.334;2024-03-08T10:03:07;19.58;;;10.65;;
84101;SDS011;74198;51.618;8.334;2024-03-08T10:05:34;23.10;;;11.75;;
84101;SDS011;74198;51.618;8.334;2024-03-08T10:08:00;18.77;;;10.50;;
84101;SDS011;74198;51.618;8.334;2024-03-08T10:10:26;17.33;;;10.30;;
84101;SDS011;74198;51.618;8.334;2024-03-08T10:12:52;17.48;;;9.38;;
84101;SDS011;74198;51.618;8.334;2024-03-08T10:15:18;23.10;;;11.00;;
84101;SDS011;74198;51.618;8.334;2024-03-08T10:17:45;18.65;;;10.25;;
84101;SDS011;74198;51.618;8.334;2024-03-08T10:20:14;22.67;;;11.80;;
84101;SDS011;74198;51.618;8.334;2024-03-08T10:22:40;19.02;;;9.70;;
84101;SDS011;74198;51.618;8.334;2024-03-08T10:25:12;17.35;;;10.10;;
84101;SDS011;74198;51.618;8.334;2024-03-08T10:27:39;21.73;;;11.88;;
84101;SDS011;74198;51.618;8.334;2024-03-08T10:30:06;19.15;;;10.32;;
84101;SDS011;74198;51.618;8.334;2024-03-08T10:32:33;15.55;;;8.13;;
84101;SDS011;74198;51.618;8.334;2024-03-08T10:34:59;19.52;;;10.77;;
84101;SDS011;74198;51.618;8.334;2024-03-08T10:37:25;16.98;;;10.02;;
84101;SDS011;74198;51.618;8.334;2024-03-08T10:40:02;18.63;;;10.13;;
84101;SDS011;74198;51.618;8.334;2024-03-08T10:42:35;20.38;;;10.98;;
84101;SDS011;74198;51.618;8.334;2024-03-08T10:45:11;18.80;;;10.32;;
84101;SDS011;74198;51.618;8.334;2024-03-08T10:47:40;21.15;;;11.40;;
84101;SDS011;74198;51.618;8.334;2024-03-08T10:50:10;21.33;;;10.68;;
84101;SDS011;74198;51.618;8.334;2024-03-08T10:52:38;20.98;;;10.63;;
84101;SDS011;74198;51.618;8.334;2024-03-08T10:55:04;19.00;;;10.30;;
84101;SDS011;74198;51.618;8.334;2024-03-08T10:57:37;19.35;;;12.02;;
84101;SDS011;74198;51.618;8.334;2024-03-08T11:00:04;19.70;;;11.23;;
84101;SDS011;74198;51.618;8.334;2024-03-08T11:02:35;19.52;;;10.55;;
84101;SDS011;74198;51.618;8.334;2024-03-08T11:05:02;20.17;;;10.82;;
84101;SDS011;74198;51.618;8.334;2024-03-08T11:07:30;20.95;;;10.55;;
84101;SDS011;74198;51.618;8.334;2024-03-08T11:10:02;21.33;;;11.30;;
84101;SDS011;74198;51.618;8.334;2024-03-08T11:12:37;14.95;;;7.93;;
84101;SDS011;74198;51.618;8.334;2024-03-08T11:15:09;16.95;;;8.57;;
84101;SDS011;74198;51.618;8.334;2024-03-08T11:20:17;18.98;;;11.00;;
84101;SDS011;74198;51.618;8.334;2024-03-08T11:28:07;23.00;;;12.00;;
84101;SDS011;74198;51.618;8.334;2024-03-08T11:30:33;27.35;;;12.05;;
84101;SDS011;74198;51.618;8.334;2024-03-08T11:33:00;20.50;;;11.13;;
84101;SDS011;74198;51.618;8.334;2024-03-08T11:35:28;20.60;;;11.35;;
84101;SDS011;74198;51.618;8.334;2024-03-08T11:37:54;20.08;;;11.43;;
84101;SDS011;74198;51.618;8.334;2024-03-08T11:40:20;20.75;;;10.90;;
84101;SDS011;74198;51.618;8.334;2024-03-08T11:42:48;18.00;;;12.45;;
84101;SDS011;74198;51.618;8.334;2024-03-08T11:45:14;20.08;;;11.65;;
84101;SDS011;74198;51.618;8.334;2024-03-08T11:47:43;18.77;;;10.68;;
84101;SDS011;74198;51.618;8.334;2024-03-08T11:50:12;19.65;;;10.57;;
84101;SDS011;74198;51.618;8.334;2024-03-08T11:52:39;17.58;;;10.57;;
84101;SDS011;74198;51.618;8.334;2024-03-08T11:55:05;19.60;;;11.18;;
84101;SDS011;74198;51.618;8.334;2024-03-08T11:57:31;19.77;;;11.02;;
84101;SDS011;74198;51.618;8.334;2024-03-08T11:59:58;19.65;;;11.60;;
84101;SDS011;74198;51.618;8.334;2024-03-08T12:02:33;17.20;;;10.65;;
84101;SDS011;74198;51.618;8.334;2024-03-08T12:05:05;17.73;;;10.55;;
84101;SDS011;74198;51.618;8.334;2024-03-08T12:07:34;20.15;;;9.68;;
84101;SDS011;74198;51.618;8.334;2024-03-08T12:10:20;21.05;;;11.05;;
84101;SDS011;74198;51.618;8.334;2024-03-08T12:12:50;19.77;;;9.05;;
84101;SDS011;74198;51.618;8.334;2024-03-08T12:15:17;18.17;;;10.30;;
84101;SDS011;74198;51.618;8.334;2024-03-08T12:17:43;18.40;;;9.88;;
84101;SDS011;74198;51.618;8.334;2024-03-08T12:20:17;22.00;;;11.18;;
84101;SDS011;74198;51.618;8.334;2024-03-08T12:22:43;20.73;;;11.05;;
84101;SDS011;74198;51.618;8.334;2024-03-08T12:25:13;16.27;;;9.27;;
84101;SDS011;74198;51.618;8.334;2024-03-08T12:27:39;21.30;;;10.90;;
84101;SDS011;74198;51.618;8.334;2024-03-08T12:32:52;18.08;;;10.70;;
84101;SDS011;74198;51.618;8.334;2024-03-08T12:35:19;15.57;;;7.78;;
84101;SDS011;74198;51.618;8.334;2024-03-08T12:37:47;20.13;;;10.80;;
84101;SDS011;74198;51.618;8.334;2024-03-08T12:40:14;16.13;;;9.32;;
84101;SDS011;74198;51.618;8.334;2024-03-08T12:42:42;17.35;;;9.43;;
84101;SDS011;74198;51.618;8.334;2024-03-08T12:45:08;18.92;;;8.82;;
84101;SDS011;74198;51.618;8.334;2024-03-08T12:47:35;19.77;;;10.43;;
84101;SDS011;74198;51.618;8.334;2024-03-08T12:50:02;21.95;;;10.32;;
84101;SDS011;74198;51.618;8.334;2024-03-08T12:52:28;23.38;;;11.85;;
84101;SDS011;74198;51.618;8.334;2024-03-08T12:54:55;18.02;;;9.52;;
84101;SDS011;74198;51.618;8.334;2024-03-08T12:57:21;21.48;;;10.20;;
84101;SDS011;74198;51.618;8.334;2024-03-08T12:59:47;12.45;;;7.10;;
84101;SDS011;74198;51.618;8.334;2024-03-08T13:02:14;15.73;;;8.40;;
84101;SDS011;74198;51.618;8.334;2024-03-08T13:04:41;19.70;;;9.88;;
84101;SDS011;74198;51.618;8.334;2024-03-08T13:07:07;20.15;;;10.60;;
84101;SDS011;74198;51.618;8.334;2024-03-08T13:09:33;20.52;;;11.07;;
84101;SDS011;74198;51.618;8.334;2024-03-08T13:12:02;15.77;;;6.97;;
84101;SDS011;74198;51.618;8.334;2024-03-08T13:14:28;17.40;;;9.77;;
84101;SDS011;74198;51.618;8.334;2024-03-08T13:16:57;15.85;;;8.00;;
84101;SDS011;74198;51.618;8.334;2024-03-08T13:19:24;20.10;;;9.60;;
84101;SDS011;74198;51.618;8.334;2024-03-08T13:21:53;16.25;;;9.32;;
84101;SDS011;74198;51.618;8.334;2024-03-08T13:24:19;22.17;;;9.48;;
84101;SDS011;74198;51.618;8.334;2024-03-08T13:26:45;19.35;;;10.50;;
84101;SDS011;74198;51.618;8.334;2024-03-08T13:29:11;16.80;;;9.27;;
84101;SDS011;74198;51.618;8.334;2024-03-08T13:31:39;17.73;;;8.88;;
84101;SDS011;74198;51.618;8.334;2024-03-08T13:34:05;19.23;;;10.30;;
84101;SDS011;74198;51.618;8.334;2024-03-08T13:36:31;19.42;;;10.30;;
84101;SDS011;74198;51.618;8.334;2024-03-08T13:39:04;15.48;;;7.50;;
84101;SDS011;74198;51.618;8.334;2024-03-08T13:41:40;23.90;;;11.23;;
84101;SDS011;74198;51.618;8.334;2024-03-08T13:44:06;18.55;;;11.07;;
84101;SDS011;74198;51.618;8.334;2024-03-08T13:46:33;19.73;;;9.27;;
84101;SDS011;74198;51.618;8.334;2024-03-08T13:49:03;19.67;;;9.95;;
84101;SDS011;74198;51.618;8.334;2024-03-08T13:51:34;19.38;;;8.90;;
84101;SDS011;74198;51.618;8.334;2024-03-08T13:54:00;18.25;;;9.27;;
84101;SDS011;74198;51.618;8.334;2024-03-08T13:56:27;19.75;;;10.25;;
84101;SDS011;74198;51.618;8.334;2024-03-08T13:58:56;18.02;;;9.65;;
84101;SDS011;74198;51.618;8.334;2024-03-08T14:01:22;23.77;;;11.43;;
84101;SDS011;74198;51.618;8.334;2024-03-08T14:03:48;20.95;;;11.13;;
84101;SDS011;74198;51.618;8.334;2024-03-08T14:06:14;21.95;;;11.05;;
84101;SDS011;74198;51.618;8.334;2024-03-08T14:08:40;18.65;;;11.07;;
84101;SDS011;74198;51.618;8.334;2024-03-08T14:11:06;23.45;;;12.23;;
84101;SDS011;74198;51.618;8.334;2024-03-08T14:13:43;22.00;;;11.35;;
84101;SDS011;74198;51.618;8.334;2024-03-08T14:16:10;19.50;;;9.45;;
84101;SDS011;74198;51.618;8.334;2024-03-08T14:18:36;20.73;;;11.20;;
84101;SDS011;74198;51.618;8.334;2024-03-08T14:21:03;24.90;;;10.32;;
84101;SDS011;74198;51.618;8.334;2024-03-08T14:23:29;20.77;;;10.55;;
84101;SDS011;74198;51.618;8.334;2024-03-08T14:25:55;20.45;;;10.55;;
84101;SDS011;74198;51.618;8.334;2024-03-08T14:28:24;23.35;;;12.10;;
84101;SDS011;74198;51.618;8.334;2024-03-08T14:30:50;23.80;;;11.57;;
84101;SDS011;74198;51.618;8.334;2024-03-08T14:33:17;20.70;;;10.80;;
84101;SDS011;74198;51.618;8.334;2024-03-08T14:35:43;17.63;;;8.70;;